TKJ2KF LTFJ-LTCE
Flight info
| Callsign | TKJ2KF |
|---|---|
| Flight time | 1h 20m |
| Altitude | 37000 |
| Route | VICEN1J/06L VICEN UT380 ASMAP UL333 LATGA UT363 GURBU UA4 DAMAT |
| Aircraft | B38M/M-SDE1FGHILORVWXY/HB1 |
Departure
| Time | 2026-05-06 18:24 |
|---|---|
| Airport | Istanbul Sabiha Gökçen International Airport (LTFJ) |
Arrival
| Time | 2026-05-06 19:45 |
|---|---|
| Airport | Erzurum International Airport (LTCE) |
| Time | Latitude | Longitude | Altitude | Speed | Heading |
|---|---|---|---|---|---|
| 2026-05-06 17:54 | 40.90421 | 29.31586 | 323 ft | 0 kts | 154° |
| 2026-05-06 18:12 | 40.90442 | 29.31573 | 321 ft | 4 kts | 157° |
| 2026-05-06 18:12 | 40.90467 | 29.31563 | 322 ft | 4 kts | 175° |
| 2026-05-06 18:13 | 40.90492 | 29.31567 | 323 ft | 4 kts | 212° |
| 2026-05-06 18:13 | 40.90504 | 29.31584 | 323 ft | 1 kts | 244° |
| 2026-05-06 18:13 | 40.90505 | 29.31588 | 322 ft | 0 kts | 244° |
| 2026-05-06 18:17 | 40.90501 | 29.31578 | 323 ft | 4 kts | 244° |
| 2026-05-06 18:17 | 40.90473 | 29.31503 | 321 ft | 15 kts | 244° |
| 2026-05-06 18:18 | 40.90426 | 29.31432 | 322 ft | 6 kts | 182° |
| 2026-05-06 18:18 | 40.90394 | 29.31449 | 323 ft | 6 kts | 154° |
| 2026-05-06 18:18 | 40.90340 | 29.31484 | 323 ft | 12 kts | 154° |
| 2026-05-06 18:18 | 40.90268 | 29.31473 | 323 ft | 9 kts | 232° |
| 2026-05-06 18:19 | 40.90242 | 29.31401 | 320 ft | 10 kts | 245° |
| 2026-05-06 18:19 | 40.90204 | 29.31299 | 319 ft | 14 kts | 244° |
| 2026-05-06 18:19 | 40.90152 | 29.31158 | 322 ft | 22 kts | 244° |
| 2026-05-06 18:19 | 40.90075 | 29.30945 | 322 ft | 28 kts | 244° |
| 2026-05-06 18:20 | 40.89985 | 29.30704 | 321 ft | 30 kts | 244° |
| 2026-05-06 18:20 | 40.89892 | 29.30448 | 322 ft | 30 kts | 244° |
| 2026-05-06 18:20 | 40.89806 | 29.30212 | 322 ft | 28 kts | 244° |
| 2026-05-06 18:20 | 40.89721 | 29.29984 | 322 ft | 21 kts | 245° |
| 2026-05-06 18:21 | 40.89702 | 29.29931 | 322 ft | 2 kts | 245° |
| 2026-05-06 18:21 | 40.89692 | 29.29904 | 321 ft | 5 kts | 243° |
| 2026-05-06 18:21 | 40.89665 | 29.29833 | 321 ft | 13 kts | 244° |
| 2026-05-06 18:21 | 40.89614 | 29.29689 | 322 ft | 22 kts | 244° |
| 2026-05-06 18:22 | 40.89537 | 29.29483 | 321 ft | 25 kts | 244° |
| 2026-05-06 18:22 | 40.89476 | 29.29316 | 322 ft | 19 kts | 243° |
| 2026-05-06 18:22 | 40.89378 | 29.29261 | 322 ft | 15 kts | 156° |
| 2026-05-06 18:22 | 40.89293 | 29.29337 | 323 ft | 12 kts | 111° |
| 2026-05-06 18:23 | 40.89310 | 29.29438 | 322 ft | 2 kts | 64° |
| 2026-05-06 18:23 | 40.89315 | 29.29452 | 322 ft | 11 kts | 64° |
| 2026-05-06 18:23 | 40.89398 | 29.29675 | 324 ft | 43 kts | 64° |
| 2026-05-06 18:23 | 40.89626 | 29.30291 | 324 ft | 110 kts | 64° |
| 2026-05-06 18:24 | 40.90050 | 29.31454 | 373 ft | 166 kts | 65° |
| 2026-05-06 18:24 | 40.90555 | 29.32884 | 1193 ft | 169 kts | 62° |
| 2026-05-06 18:24 | 40.91079 | 29.34221 | 2228 ft | 159 kts | 64° |
| 2026-05-06 18:24 | 40.91556 | 29.35526 | 2988 ft | 158 kts | 63° |
| 2026-05-06 18:25 | 40.92046 | 29.36862 | 3519 ft | 167 kts | 63° |
| 2026-05-06 18:25 | 40.92571 | 29.38289 | 4018 ft | 178 kts | 62° |
| 2026-05-06 18:25 | 40.93108 | 29.39836 | 4503 ft | 194 kts | 70° |
| 2026-05-06 18:25 | 40.93124 | 29.41694 | 4937 ft | 215 kts | 105° |
| 2026-05-06 18:26 | 40.92286 | 29.43432 | 5338 ft | 239 kts | 140° |
| 2026-05-06 18:26 | 40.90796 | 29.44574 | 5811 ft | 258 kts | 152° |
| 2026-05-06 18:26 | 40.89428 | 29.46205 | 6283 ft | 276 kts | 118° |
| 2026-05-06 18:26 | 40.88821 | 29.48645 | 6815 ft | 287 kts | 97° |
| 2026-05-06 18:27 | 40.88371 | 29.51223 | 7714 ft | 288 kts | 103° |
| 2026-05-06 18:27 | 40.87809 | 29.53739 | 8567 ft | 292 kts | 105° |
| 2026-05-06 18:27 | 40.87160 | 29.56344 | 9403 ft | 296 kts | 106° |
| 2026-05-06 18:27 | 40.86483 | 29.58893 | 10216 ft | 300 kts | 107° |
| 2026-05-06 18:28 | 40.85759 | 29.61530 | 10749 ft | 314 kts | 108° |
| 2026-05-06 18:28 | 40.84978 | 29.64315 | 11181 ft | 332 kts | 108° |
| 2026-05-06 18:28 | 40.84148 | 29.67222 | 11721 ft | 344 kts | 108° |
| 2026-05-06 18:28 | 40.83298 | 29.70187 | 12543 ft | 346 kts | 108° |
| 2026-05-06 18:29 | 40.82439 | 29.73180 | 13346 ft | 352 kts | 108° |
| 2026-05-06 18:29 | 40.81564 | 29.76222 | 13998 ft | 357 kts | 108° |
| 2026-05-06 18:29 | 40.80682 | 29.79288 | 14055 ft | 357 kts | 108° |
| 2026-05-06 18:29 | 40.79801 | 29.82344 | 14069 ft | 356 kts | 108° |
| 2026-05-06 18:30 | 40.78920 | 29.85397 | 14074 ft | 356 kts | 109° |
| 2026-05-06 18:30 | 40.78039 | 29.88450 | 14070 ft | 356 kts | 109° |
| 2026-05-06 18:30 | 40.77160 | 29.91496 | 14075 ft | 357 kts | 108° |
| 2026-05-06 18:30 | 40.76325 | 29.94577 | 14823 ft | 355 kts | 107° |
| 2026-05-06 18:31 | 40.75484 | 29.97668 | 15583 ft | 361 kts | 108° |
| 2026-05-06 18:31 | 40.74630 | 30.00798 | 16339 ft | 365 kts | 108° |
| 2026-05-06 18:31 | 40.73764 | 30.03962 | 17096 ft | 369 kts | 108° |
| 2026-05-06 18:31 | 40.72889 | 30.07157 | 17845 ft | 373 kts | 108° |
| 2026-05-06 18:32 | 40.72004 | 30.10383 | 18542 ft | 376 kts | 108° |
| 2026-05-06 18:32 | 40.71107 | 30.13648 | 19156 ft | 380 kts | 108° |
| 2026-05-06 18:32 | 40.70202 | 30.16935 | 19772 ft | 384 kts | 108° |
| 2026-05-06 18:32 | 40.69286 | 30.20259 | 20374 ft | 388 kts | 108° |
| 2026-05-06 18:33 | 40.68360 | 30.23616 | 20984 ft | 391 kts | 108° |
| 2026-05-06 18:33 | 40.67743 | 30.25852 | 21385 ft | 394 kts | 108° |
| 2026-05-06 18:33 | 40.66818 | 30.29259 | 21975 ft | 397 kts | 105° |
| 2026-05-06 18:33 | 40.66337 | 30.32830 | 22559 ft | 397 kts | 95° |
| 2026-05-06 18:34 | 40.65736 | 30.36414 | 23086 ft | 404 kts | 102° |
| 2026-05-06 18:34 | 40.65075 | 30.40017 | 23663 ft | 407 kts | 101° |
| 2026-05-06 18:34 | 40.64440 | 30.43662 | 24124 ft | 410 kts | 100° |
| 2026-05-06 18:34 | 40.63814 | 30.47342 | 24604 ft | 413 kts | 100° |
| 2026-05-06 18:35 | 40.63195 | 30.51043 | 25072 ft | 416 kts | 100° |
| 2026-05-06 18:35 | 40.62573 | 30.54777 | 25503 ft | 419 kts | 100° |
| 2026-05-06 18:35 | 40.61946 | 30.58536 | 25965 ft | 422 kts | 100° |
| 2026-05-06 18:35 | 40.61314 | 30.62327 | 26409 ft | 425 kts | 100° |
| 2026-05-06 18:36 | 40.60676 | 30.66143 | 26837 ft | 428 kts | 100° |
| 2026-05-06 18:36 | 40.60034 | 30.69979 | 27262 ft | 431 kts | 99° |
| 2026-05-06 18:36 | 40.59385 | 30.73846 | 27687 ft | 434 kts | 99° |
| 2026-05-06 18:36 | 40.58731 | 30.77737 | 28094 ft | 438 kts | 99° |
| 2026-05-06 18:37 | 40.58070 | 30.81658 | 28507 ft | 440 kts | 99° |
| 2026-05-06 18:37 | 40.57402 | 30.85609 | 28890 ft | 443 kts | 99° |
| 2026-05-06 18:37 | 40.56730 | 30.89577 | 29301 ft | 447 kts | 99° |
| 2026-05-06 18:37 | 40.56051 | 30.93579 | 29690 ft | 450 kts | 99° |
| 2026-05-06 18:38 | 40.55368 | 30.97598 | 30079 ft | 453 kts | 99° |
| 2026-05-06 18:38 | 40.54676 | 31.01657 | 30400 ft | 455 kts | 99° |
| 2026-05-06 18:38 | 40.53980 | 31.05729 | 30721 ft | 458 kts | 99° |
| 2026-05-06 18:38 | 40.53289 | 31.09764 | 31039 ft | 460 kts | 99° |
| 2026-05-06 18:39 | 40.52585 | 31.13866 | 31371 ft | 462 kts | 99° |
| 2026-05-06 18:39 | 40.52022 | 31.18025 | 31640 ft | 462 kts | 93° |
| 2026-05-06 18:39 | 40.51632 | 31.22231 | 31937 ft | 465 kts | 94° |
| 2026-05-06 18:40 | 40.50750 | 31.30686 | 32545 ft | 470 kts | 95° |
| 2026-05-06 18:40 | 40.50287 | 31.34949 | 32839 ft | 472 kts | 95° |
| 2026-05-06 18:40 | 40.49820 | 31.39225 | 33139 ft | 474 kts | 95° |
| 2026-05-06 18:40 | 40.49348 | 31.43522 | 33462 ft | 476 kts | 95° |
| 2026-05-06 18:41 | 40.48874 | 31.47821 | 33854 ft | 475 kts | 95° |
| 2026-05-06 18:41 | 40.48400 | 31.52111 | 34256 ft | 474 kts | 95° |
| 2026-05-06 18:41 | 40.47924 | 31.56397 | 34565 ft | 474 kts | 95° |
| 2026-05-06 18:41 | 40.47447 | 31.60689 | 34836 ft | 475 kts | 95° |
| 2026-05-06 18:42 | 40.46968 | 31.64973 | 35157 ft | 475 kts | 95° |
| 2026-05-06 18:42 | 40.46486 | 31.69274 | 35451 ft | 476 kts | 95° |
| 2026-05-06 18:42 | 40.46002 | 31.73569 | 35748 ft | 476 kts | 95° |
| 2026-05-06 18:42 | 40.45517 | 31.77875 | 36036 ft | 476 kts | 95° |
| 2026-05-06 18:43 | 40.45030 | 31.82174 | 36317 ft | 477 kts | 95° |
| 2026-05-06 18:43 | 40.44540 | 31.86478 | 36579 ft | 477 kts | 95° |
| 2026-05-06 18:43 | 40.44049 | 31.90785 | 36850 ft | 477 kts | 95° |
| 2026-05-06 18:43 | 40.43557 | 31.95085 | 37063 ft | 478 kts | 96° |
| 2026-05-06 18:44 | 40.43063 | 31.99398 | 37103 ft | 477 kts | 96° |
| 2026-05-06 18:44 | 40.42071 | 32.07991 | 37111 ft | 477 kts | 96° |
| 2026-05-06 18:45 | 40.41073 | 32.16581 | 37119 ft | 477 kts | 96° |
| 2026-05-06 18:45 | 40.40067 | 32.25182 | 37105 ft | 477 kts | 96° |
| 2026-05-06 18:46 | 40.39055 | 32.33779 | 37112 ft | 477 kts | 96° |
| 2026-05-06 18:46 | 40.38035 | 32.42385 | 37112 ft | 478 kts | 96° |
| 2026-05-06 18:47 | 40.37074 | 32.50445 | 37112 ft | 478 kts | 96° |
| 2026-05-06 18:47 | 40.36049 | 32.58983 | 37118 ft | 478 kts | 96° |
| 2026-05-06 18:48 | 40.35010 | 32.67588 | 37108 ft | 478 kts | 96° |
| 2026-05-06 18:48 | 40.33964 | 32.76196 | 37116 ft | 478 kts | 96° |
| 2026-05-06 18:49 | 40.32911 | 32.84800 | 37123 ft | 478 kts | 96° |
| 2026-05-06 18:49 | 40.31852 | 32.93409 | 37126 ft | 478 kts | 96° |
| 2026-05-06 18:50 | 40.30786 | 33.02012 | 37129 ft | 479 kts | 97° |
| 2026-05-06 18:50 | 40.29713 | 33.10618 | 37125 ft | 479 kts | 97° |
| 2026-05-06 18:51 | 40.28634 | 33.19218 | 37122 ft | 478 kts | 97° |
| 2026-05-06 18:51 | 40.27550 | 33.27807 | 37114 ft | 478 kts | 97° |
| 2026-05-06 18:52 | 40.26459 | 33.36395 | 37103 ft | 478 kts | 97° |
| 2026-05-06 18:52 | 40.25361 | 33.44986 | 37094 ft | 478 kts | 97° |
| 2026-05-06 18:53 | 40.24258 | 33.53562 | 37092 ft | 478 kts | 97° |
| 2026-05-06 18:53 | 40.23148 | 33.62147 | 37091 ft | 478 kts | 97° |
| 2026-05-06 18:54 | 40.22032 | 33.70725 | 37088 ft | 478 kts | 97° |
| 2026-05-06 18:54 | 40.20917 | 33.79240 | 37082 ft | 478 kts | 97° |
| 2026-05-06 18:55 | 40.19788 | 33.87811 | 37084 ft | 478 kts | 98° |
| 2026-05-06 18:55 | 40.18654 | 33.96377 | 37082 ft | 478 kts | 98° |
| 2026-05-06 18:56 | 40.17513 | 34.04937 | 37083 ft | 478 kts | 98° |
| 2026-05-06 18:56 | 40.16365 | 34.13504 | 37084 ft | 478 kts | 98° |
| 2026-05-06 18:57 | 40.15211 | 34.22061 | 37084 ft | 478 kts | 98° |
| 2026-05-06 18:57 | 40.14051 | 34.30614 | 37094 ft | 478 kts | 98° |
| 2026-05-06 18:58 | 40.12884 | 34.39171 | 37097 ft | 478 kts | 98° |
| 2026-05-06 18:58 | 40.11711 | 34.47724 | 37096 ft | 478 kts | 98° |
| 2026-05-06 18:59 | 40.10530 | 34.56284 | 37095 ft | 479 kts | 98° |
| 2026-05-06 18:59 | 40.09343 | 34.64843 | 37096 ft | 479 kts | 99° |
| 2026-05-06 19:00 | 40.08150 | 34.73393 | 37094 ft | 479 kts | 99° |
| 2026-05-06 19:00 | 40.06958 | 34.81892 | 37096 ft | 479 kts | 99° |
| 2026-05-06 19:01 | 40.05745 | 34.90487 | 37097 ft | 479 kts | 99° |
| 2026-05-06 19:01 | 40.04533 | 34.99031 | 37097 ft | 479 kts | 99° |
| 2026-05-06 19:02 | 40.03313 | 35.07580 | 37095 ft | 479 kts | 99° |
| 2026-05-06 19:02 | 40.02097 | 35.16061 | 37094 ft | 479 kts | 99° |
| 2026-05-06 19:03 | 40.00864 | 35.24604 | 37092 ft | 479 kts | 99° |
| 2026-05-06 19:03 | 39.99626 | 35.33143 | 37096 ft | 479 kts | 99° |
| 2026-05-06 19:04 | 39.98531 | 35.41699 | 37091 ft | 478 kts | 98° |
| 2026-05-06 19:04 | 39.97449 | 35.50260 | 37095 ft | 479 kts | 98° |
| 2026-05-06 19:05 | 39.96358 | 35.58814 | 37097 ft | 479 kts | 98° |
| 2026-05-06 19:05 | 39.95261 | 35.67370 | 37104 ft | 479 kts | 98° |
| 2026-05-06 19:06 | 39.94156 | 35.75925 | 37110 ft | 479 kts | 99° |
| 2026-05-06 19:06 | 39.93045 | 35.84482 | 37118 ft | 479 kts | 99° |
| 2026-05-06 19:07 | 39.91931 | 35.93022 | 37127 ft | 479 kts | 99° |
| 2026-05-06 19:07 | 39.90813 | 36.01573 | 37136 ft | 479 kts | 99° |
| 2026-05-06 19:08 | 39.89690 | 36.10118 | 37138 ft | 479 kts | 99° |
| 2026-05-06 19:08 | 39.88560 | 36.18664 | 37138 ft | 479 kts | 99° |
| 2026-05-06 19:09 | 39.87415 | 36.27201 | 37140 ft | 479 kts | 100° |
| 2026-05-06 19:09 | 39.86190 | 36.35724 | 37141 ft | 479 kts | 99° |
| 2026-05-06 19:10 | 39.85060 | 36.44267 | 37142 ft | 479 kts | 99° |
| 2026-05-06 19:10 | 39.83914 | 36.52822 | 37145 ft | 480 kts | 99° |
| 2026-05-06 19:11 | 39.82762 | 36.61365 | 37149 ft | 480 kts | 100° |
| 2026-05-06 19:11 | 39.81601 | 36.69921 | 37156 ft | 480 kts | 100° |
| 2026-05-06 19:12 | 39.80435 | 36.78473 | 37157 ft | 480 kts | 100° |
| 2026-05-06 19:12 | 39.79271 | 36.87029 | 37159 ft | 481 kts | 98° |
| 2026-05-06 19:12 | 39.79178 | 36.91354 | 37151 ft | 478 kts | 83° |
| 2026-05-06 19:13 | 39.79525 | 36.95659 | 37145 ft | 480 kts | 84° |
| 2026-05-06 19:13 | 39.80183 | 37.04295 | 37150 ft | 480 kts | 83° |
| 2026-05-06 19:14 | 39.80876 | 37.12877 | 37155 ft | 480 kts | 83° |
| 2026-05-06 19:14 | 39.81573 | 37.21523 | 37151 ft | 481 kts | 83° |
| 2026-05-06 19:15 | 39.82263 | 37.30166 | 37138 ft | 481 kts | 83° |
| 2026-05-06 19:15 | 39.82947 | 37.38814 | 37139 ft | 481 kts | 84° |
| 2026-05-06 19:16 | 39.83620 | 37.47479 | 37137 ft | 481 kts | 84° |
| 2026-05-06 19:16 | 39.84283 | 37.56138 | 37134 ft | 481 kts | 84° |
| 2026-05-06 19:17 | 39.84941 | 37.64799 | 37136 ft | 481 kts | 84° |
| 2026-05-06 19:17 | 39.85592 | 37.73465 | 37135 ft | 481 kts | 84° |
| 2026-05-06 19:18 | 39.86237 | 37.82134 | 37132 ft | 481 kts | 84° |
| 2026-05-06 19:18 | 39.86875 | 37.90809 | 37134 ft | 481 kts | 84° |
| 2026-05-06 19:19 | 39.87511 | 37.99483 | 37128 ft | 481 kts | 84° |
| 2026-05-06 19:19 | 39.88146 | 38.08162 | 37125 ft | 482 kts | 84° |
| 2026-05-06 19:20 | 39.88774 | 38.16849 | 37128 ft | 482 kts | 85° |
| 2026-05-06 19:20 | 39.89295 | 38.24133 | 37123 ft | 482 kts | 85° |
| 2026-05-06 19:21 | 39.89913 | 38.32835 | 37120 ft | 482 kts | 85° |
| 2026-05-06 19:21 | 39.90519 | 38.41473 | 36925 ft | 482 kts | 85° |
| 2026-05-06 19:21 | 39.90820 | 38.45811 | 36660 ft | 481 kts | 85° |
| 2026-05-06 19:22 | 39.91119 | 38.50131 | 36412 ft | 481 kts | 85° |
| 2026-05-06 19:22 | 39.91419 | 38.54481 | 36162 ft | 481 kts | 85° |
| 2026-05-06 19:22 | 39.91716 | 38.58824 | 35911 ft | 481 kts | 85° |
| 2026-05-06 19:22 | 39.92011 | 38.63156 | 35666 ft | 477 kts | 85° |
| 2026-05-06 19:23 | 39.92299 | 38.67422 | 35431 ft | 471 kts | 85° |
| 2026-05-06 19:23 | 39.92585 | 38.71659 | 35179 ft | 468 kts | 85° |
| 2026-05-06 19:23 | 39.92867 | 38.75864 | 34932 ft | 465 kts | 85° |
| 2026-05-06 19:23 | 39.93146 | 38.80053 | 34693 ft | 463 kts | 85° |
| 2026-05-06 19:24 | 39.93421 | 38.84201 | 34345 ft | 458 kts | 85° |
| 2026-05-06 19:24 | 39.93674 | 38.88346 | 33608 ft | 460 kts | 89° |
| 2026-05-06 19:24 | 39.93734 | 38.92520 | 32821 ft | 462 kts | 90° |
| 2026-05-06 19:24 | 39.93802 | 38.96686 | 32360 ft | 457 kts | 89° |
| 2026-05-06 19:25 | 39.93880 | 39.00790 | 31989 ft | 450 kts | 89° |
| 2026-05-06 19:25 | 39.93959 | 39.04837 | 31505 ft | 443 kts | 89° |
| 2026-05-06 19:25 | 39.94037 | 39.08788 | 31024 ft | 432 kts | 90° |
| 2026-05-06 19:25 | 39.94101 | 39.12701 | 30491 ft | 431 kts | 90° |
| 2026-05-06 19:26 | 39.94163 | 39.16599 | 29956 ft | 429 kts | 90° |
| 2026-05-06 19:26 | 39.94225 | 39.20464 | 29432 ft | 424 kts | 90° |
| 2026-05-06 19:26 | 39.94284 | 39.24277 | 28986 ft | 418 kts | 90° |
| 2026-05-06 19:26 | 39.94341 | 39.28040 | 28546 ft | 413 kts | 90° |
| 2026-05-06 19:27 | 39.94396 | 39.31763 | 28091 ft | 408 kts | 90° |
| 2026-05-06 19:27 | 39.94450 | 39.35433 | 27652 ft | 403 kts | 90° |
| 2026-05-06 19:27 | 39.94501 | 39.39057 | 27220 ft | 398 kts | 90° |
| 2026-05-06 19:27 | 39.94551 | 39.42645 | 26790 ft | 393 kts | 90° |
| 2026-05-06 19:28 | 39.94600 | 39.46185 | 26364 ft | 389 kts | 90° |
| 2026-05-06 19:28 | 39.94646 | 39.49691 | 25944 ft | 385 kts | 90° |
| 2026-05-06 19:28 | 39.94692 | 39.53158 | 25530 ft | 381 kts | 90° |
| 2026-05-06 19:28 | 39.94735 | 39.56585 | 25120 ft | 377 kts | 90° |
| 2026-05-06 19:29 | 39.94779 | 39.59993 | 24651 ft | 375 kts | 90° |
| 2026-05-06 19:29 | 39.94822 | 39.63373 | 24256 ft | 371 kts | 90° |
| 2026-05-06 19:29 | 39.94863 | 39.66724 | 23866 ft | 367 kts | 90° |
| 2026-05-06 19:29 | 39.94903 | 39.70037 | 23426 ft | 364 kts | 90° |
| 2026-05-06 19:30 | 39.94941 | 39.73320 | 22989 ft | 360 kts | 90° |
| 2026-05-06 19:30 | 39.94974 | 39.76174 | 22650 ft | 356 kts | 90° |
| 2026-05-06 19:30 | 39.95010 | 39.79378 | 22267 ft | 351 kts | 90° |
| 2026-05-06 19:30 | 39.95044 | 39.82547 | 21893 ft | 347 kts | 90° |
| 2026-05-06 19:31 | 39.95077 | 39.85681 | 21503 ft | 346 kts | 90° |
| 2026-05-06 19:31 | 39.95110 | 39.88832 | 21126 ft | 349 kts | 90° |
| 2026-05-06 19:31 | 39.95171 | 39.95122 | 20306 ft | 349 kts | 90° |
| 2026-05-06 19:32 | 39.95200 | 39.98306 | 19953 ft | 347 kts | 90° |
| 2026-05-06 19:32 | 39.95227 | 40.01420 | 19600 ft | 346 kts | 90° |
| 2026-05-06 19:32 | 39.95254 | 40.04592 | 19230 ft | 345 kts | 90° |
| 2026-05-06 19:32 | 39.95280 | 40.07710 | 18862 ft | 344 kts | 90° |
| 2026-05-06 19:33 | 39.95306 | 40.10830 | 18491 ft | 343 kts | 90° |
| 2026-05-06 19:33 | 39.95330 | 40.13932 | 18106 ft | 342 kts | 90° |
| 2026-05-06 19:33 | 39.95352 | 40.16956 | 17965 ft | 335 kts | 90° |
| 2026-05-06 19:33 | 39.95374 | 40.20046 | 17707 ft | 337 kts | 90° |
| 2026-05-06 19:34 | 39.95395 | 40.23059 | 17354 ft | 337 kts | 90° |
| 2026-05-06 19:34 | 39.95416 | 40.26109 | 16972 ft | 336 kts | 90° |
| 2026-05-06 19:34 | 39.95436 | 40.29149 | 16577 ft | 336 kts | 90° |
| 2026-05-06 19:34 | 39.95454 | 40.32188 | 16177 ft | 334 kts | 90° |
| 2026-05-06 19:35 | 39.95472 | 40.35202 | 15777 ft | 331 kts | 90° |
| 2026-05-06 19:35 | 39.95489 | 40.38189 | 15387 ft | 328 kts | 90° |
| 2026-05-06 19:35 | 39.95505 | 40.41154 | 14997 ft | 325 kts | 90° |
| 2026-05-06 19:35 | 39.95520 | 40.44086 | 14586 ft | 323 kts | 90° |
| 2026-05-06 19:36 | 39.95535 | 40.47020 | 14128 ft | 324 kts | 90° |
| 2026-05-06 19:36 | 39.95548 | 40.49948 | 13676 ft | 322 kts | 90° |
| 2026-05-06 19:36 | 39.95561 | 40.52858 | 13243 ft | 320 kts | 90° |
| 2026-05-06 19:36 | 39.95573 | 40.55744 | 12842 ft | 317 kts | 90° |
| 2026-05-06 19:37 | 39.95584 | 40.58597 | 12461 ft | 313 kts | 90° |
| 2026-05-06 19:37 | 39.95596 | 40.61390 | 12290 ft | 303 kts | 90° |
| 2026-05-06 19:37 | 39.95605 | 40.64091 | 12143 ft | 292 kts | 90° |
| 2026-05-06 19:37 | 39.95593 | 40.66679 | 12047 ft | 280 kts | 94° |
| 2026-05-06 19:38 | 39.95449 | 40.69195 | 11686 ft | 278 kts | 95° |
| 2026-05-06 19:38 | 39.95309 | 40.71685 | 11318 ft | 271 kts | 95° |
| 2026-05-06 19:38 | 39.95097 | 40.74085 | 11003 ft | 265 kts | 102° |
| 2026-05-06 19:38 | 39.94822 | 40.76445 | 10699 ft | 263 kts | 95° |
| 2026-05-06 19:39 | 39.94767 | 40.78820 | 10395 ft | 261 kts | 90° |
| 2026-05-06 19:39 | 39.94801 | 40.81181 | 10087 ft | 259 kts | 89° |
| 2026-05-06 19:39 | 39.94860 | 40.83509 | 9828 ft | 255 kts | 89° |
| 2026-05-06 19:39 | 39.94920 | 40.85792 | 9595 ft | 249 kts | 89° |
| 2026-05-06 19:40 | 39.94977 | 40.88015 | 9392 ft | 242 kts | 88° |
| 2026-05-06 19:40 | 39.95033 | 40.90156 | 9289 ft | 229 kts | 89° |
| 2026-05-06 19:40 | 39.95086 | 40.92168 | 9120 ft | 215 kts | 89° |
| 2026-05-06 19:40 | 39.95134 | 40.94010 | 8919 ft | 191 kts | 89° |
| 2026-05-06 19:41 | 39.95177 | 40.95635 | 8679 ft | 172 kts | 89° |
| 2026-05-06 19:41 | 39.95217 | 40.97164 | 8425 ft | 170 kts | 89° |
| 2026-05-06 19:41 | 39.95258 | 40.98717 | 8182 ft | 169 kts | 88° |
| 2026-05-06 19:41 | 39.95297 | 41.00219 | 8083 ft | 168 kts | 88° |
| 2026-05-06 19:42 | 39.95340 | 41.01743 | 8020 ft | 166 kts | 88° |
| 2026-05-06 19:42 | 39.95405 | 41.03230 | 7754 ft | 166 kts | 87° |
| 2026-05-06 19:42 | 39.95472 | 41.04719 | 7429 ft | 166 kts | 88° |
| 2026-05-06 19:42 | 39.95503 | 41.06230 | 7111 ft | 165 kts | 89° |
| 2026-05-06 19:43 | 39.95526 | 41.07723 | 6844 ft | 163 kts | 89° |
| 2026-05-06 19:43 | 39.95557 | 41.09200 | 6619 ft | 169 kts | 88° |
| 2026-05-06 19:43 | 39.95601 | 41.10682 | 6352 ft | 165 kts | 87° |
| 2026-05-06 19:43 | 39.95636 | 41.12200 | 6145 ft | 166 kts | 88° |
| 2026-05-06 19:44 | 39.95662 | 41.13684 | 5952 ft | 162 kts | 87° |
| 2026-05-06 19:44 | 39.95686 | 41.15131 | 5791 ft | 155 kts | 87° |
| 2026-05-06 19:44 | 39.95719 | 41.16267 | 5782 ft | 91 kts | 88° |
| 2026-05-06 19:44 | 39.95734 | 41.16846 | 5778 ft | 50 kts | 87° |
| 2026-05-06 19:45 | 39.95747 | 41.17295 | 5777 ft | 46 kts | 88° |
| 2026-05-06 19:45 | 39.95758 | 41.17696 | 5780 ft | 41 kts | 88° |
| 2026-05-06 19:45 | 39.95799 | 41.17906 | 5781 ft | 13 kts | 26° |
| 2026-05-06 19:45 | 39.95885 | 41.17908 | 5780 ft | 13 kts | 359° |
| 2026-05-06 19:46 | 39.95970 | 41.17916 | 5777 ft | 8 kts | 23° |
| 2026-05-06 19:46 | 39.96022 | 41.17932 | 5775 ft | 5 kts | 1° |
| 2026-05-06 19:46 | 39.96043 | 41.17932 | 5775 ft | 0 kts | 359° |
| 2026-05-06 19:47 | 39.96045 | 41.17932 | 5775 ft | 0 kts | 359° |